createdAt,value
2022-08-25T00:01:50.955Z,100619.38
2022-08-25T00:04:21.804Z,100632.09
2022-08-25T00:06:50.403Z,100629.47
2022-08-25T00:09:20.921Z,100618.63
2022-08-25T00:11:50.754Z,100620.00
2022-08-25T00:14:21.804Z,100618.72
2022-08-25T00:16:50.051Z,100612.78
2022-08-25T00:19:22.192Z,100615.00
2022-08-25T00:21:50.407Z,100611.28
2022-08-25T00:24:20.893Z,100609.97
2022-08-25T00:26:51.736Z,100610.25
2022-08-25T00:29:20.155Z,100600.84
2022-08-25T00:31:48.742Z,100602.22
2022-08-25T00:34:20.115Z,100604.44
2022-08-25T00:36:50.846Z,100610.94
2022-08-25T00:39:21.246Z,100604.50
2022-08-25T00:41:50.357Z,100604.88
2022-08-25T00:44:18.965Z,100610.28
2022-08-25T00:46:48.917Z,100614.41
2022-08-25T00:49:24.886Z,100606.88
2022-08-25T00:51:59.977Z,100611.47
2022-08-25T00:54:33.494Z,100606.94
2022-08-25T00:57:04.631Z,100619.97
2022-08-25T00:59:33.414Z,100610.84
2022-08-25T01:02:02.136Z,100611.44
2022-08-25T01:04:32.238Z,100597.47
2022-08-25T01:07:02.743Z,100608.81
2022-08-25T01:09:32.891Z,100606.69
2022-08-25T01:12:02.401Z,100604.53
2022-08-25T01:14:33.400Z,100610.53
2022-08-25T01:17:01.922Z,100609.22
2022-08-25T01:19:33.837Z,100607.91
2022-08-25T01:22:03.594Z,100617.09
2022-08-25T01:24:40.233Z,100615.50
2022-08-25T01:27:09.542Z,100612.88
2022-08-25T01:29:38.067Z,100610.47
2022-08-25T01:32:09.205Z,100613.75
2022-08-25T01:34:41.087Z,100614.63
2022-08-25T01:37:13.186Z,100610.91
2022-08-25T01:39:42.644Z,100611.41
2022-08-25T01:42:20.703Z,100616.03
2022-08-25T01:44:49.078Z,100613.09
2022-08-25T01:47:17.433Z,100609.88
2022-08-25T01:49:45.992Z,100596.94
2022-08-25T01:52:17.958Z,100595.31
2022-08-25T01:54:46.397Z,100595.91
2022-08-25T01:57:14.264Z,100587.28
2022-08-25T01:59:42.296Z,100583.56
2022-08-25T02:02:10.925Z,100590.06
2022-08-25T02:04:39.549Z,100586.03
2022-08-25T02:07:10.197Z,100589.34
2022-08-25T02:09:40.200Z,100594.50
2022-08-25T02:12:09.630Z,100583.75
2022-08-25T02:14:38.266Z,100582.16
2022-08-25T02:17:07.679Z,100587.03
2022-08-25T02:19:35.477Z,100577.63
2022-08-25T02:22:03.371Z,100579.56
2022-08-25T02:24:31.425Z,100576.84
2022-08-25T02:27:00.633Z,100577.41
2022-08-25T02:29:28.467Z,100578.81
2022-08-25T02:31:56.585Z,100573.19
2022-08-25T02:34:24.419Z,100578.88
2022-08-25T02:36:52.267Z,100580.25
2022-08-25T02:39:20.920Z,100578.13
2022-08-25T02:41:48.747Z,100571.69
2022-08-25T02:44:18.137Z,100573.59
2022-08-25T02:46:46.240Z,100565.25
2022-08-25T02:49:14.055Z,100578.81
2022-08-25T02:51:43.214Z,100574.78
2022-08-25T02:54:11.092Z,100570.78
2022-08-25T02:56:40.121Z,100574.03
2022-08-25T02:59:08.109Z,100568.44
2022-08-25T03:01:37.320Z,100562.50
2022-08-25T03:04:07.188Z,100564.69
2022-08-25T03:06:35.482Z,100562.28
2022-08-25T03:09:03.349Z,100560.44
2022-08-25T03:11:31.839Z,100552.59
2022-08-25T03:13:59.977Z,100553.69
2022-08-25T03:16:28.259Z,100549.09
2022-08-25T03:18:59.631Z,100542.59
2022-08-25T03:21:29.077Z,100542.59
2022-08-25T03:23:57.838Z,100534.50
2022-08-25T03:26:43.315Z,100540.16
2022-08-25T03:29:11.661Z,100537.97
2022-08-25T03:31:40.055Z,100540.09
2022-08-25T03:34:09.678Z,100531.69
2022-08-25T03:36:38.759Z,100531.13
2022-08-25T03:39:08.622Z,100526.53
2022-08-25T03:41:36.908Z,100526.75
2022-08-25T03:44:06.993Z,100531.88
2022-08-25T03:46:38.240Z,100528.88
2022-08-25T03:49:08.779Z,100522.41
2022-08-25T03:51:40.417Z,100521.00
2022-08-25T03:54:09.297Z,100529.91
2022-08-25T03:56:37.212Z,100529.09
2022-08-25T03:59:06.042Z,100526.41
2022-08-25T04:01:35.191Z,100531.81
2022-08-25T04:04:03.106Z,100521.00
2022-08-25T04:06:31.186Z,100524.50
2022-08-25T04:09:00.709Z,100522.59
2022-08-25T04:11:29.181Z,100526.41
2022-08-25T04:13:59.286Z,100525.59
2022-08-25T04:16:30.686Z,100527.19
2022-08-25T04:19:00.613Z,100525.59
2022-08-25T04:21:29.652Z,100519.41
2022-08-25T04:23:58.235Z,100523.72
2022-08-25T04:26:30.147Z,100523.41
2022-08-25T04:29:00.145Z,100519.09
2022-08-25T04:31:29.573Z,100510.19
2022-08-25T04:33:58.122Z,100525.31
2022-08-25T04:36:26.335Z,100519.41
2022-08-25T04:38:54.368Z,100511.81
2022-08-25T04:41:24.784Z,100514.50
2022-08-25T04:43:54.626Z,100511.31
2022-08-25T04:46:24.378Z,100518.84
2022-08-25T04:48:55.760Z,100516.94
2022-08-25T04:51:26.657Z,100514.22
2022-08-25T04:53:54.534Z,100520.44
2022-08-25T04:56:26.274Z,100526.09
2022-08-25T04:58:56.582Z,100528.53
2022-08-25T05:01:27.212Z,100531.25
2022-08-25T05:03:57.456Z,100529.09
2022-08-25T05:06:26.575Z,100535.03
2022-08-25T05:08:54.577Z,100530.44
2022-08-25T05:11:23.586Z,100530.44
2022-08-25T05:13:54.265Z,100531.25
2022-08-25T05:16:25.029Z,100527.44
2022-08-25T05:18:54.029Z,100522.03
2022-08-25T05:21:24.203Z,100525.25
2022-08-25T05:23:56.801Z,100527.69
2022-08-25T05:26:26.321Z,100527.38
2022-08-25T05:28:56.819Z,100524.09
2022-08-25T05:31:27.234Z,100526.50
2022-08-25T05:33:55.899Z,100524.31
2022-08-25T05:36:25.087Z,100523.25
2022-08-25T05:38:52.891Z,100522.13
2022-08-25T05:41:22.945Z,100531.56
2022-08-25T05:43:51.418Z,100531.28
2022-08-25T05:46:21.186Z,100534.47
2022-08-25T05:48:50.728Z,100537.41
2022-08-25T05:51:19.872Z,100535.22
2022-08-25T05:53:50.016Z,100537.88
2022-08-25T05:56:18.821Z,100538.91
2022-08-25T05:58:47.628Z,100532.09
2022-08-25T06:01:45.403Z,100524.22
2022-08-25T06:04:15.335Z,100532.19
2022-08-25T06:06:43.882Z,100535.34
2022-08-25T06:09:12.556Z,100523.94
2022-08-25T06:11:41.309Z,100526.47
2022-08-25T06:14:10.558Z,100522.31
2022-08-25T06:16:38.841Z,100522.44
2022-08-25T06:19:08.433Z,100522.88
2022-08-25T06:21:39.411Z,100533.06
2022-08-25T06:24:10.965Z,100531.88
2022-08-25T06:26:41.795Z,100529.56
2022-08-25T06:29:09.682Z,100525.66
2022-08-25T06:31:37.555Z,100529.91
2022-08-25T06:34:06.324Z,100523.91
2022-08-25T06:36:34.728Z,100524.91
2022-08-25T06:39:04.645Z,100530.53
2022-08-25T06:41:36.987Z,100534.53
2022-08-25T06:44:06.154Z,100522.91
2022-08-25T06:46:36.463Z,100519.91
2022-08-25T06:49:05.836Z,100518.28
2022-08-25T06:51:36.394Z,100509.16
2022-08-25T06:54:07.791Z,100523.72
2022-08-25T06:56:35.843Z,100518.28
2022-08-25T06:59:04.957Z,100518.28
2022-08-25T07:01:33.729Z,100510.69
2022-08-25T07:04:04.262Z,100517.09
2022-08-25T07:06:35.668Z,100513.50
2022-08-25T07:09:06.703Z,100513.13
2022-08-25T07:11:34.853Z,100507.88
2022-08-25T07:14:03.483Z,100515.34
2022-08-25T07:16:32.311Z,100514.94
2022-08-25T07:19:00.770Z,100516.94
2022-08-25T07:21:33.636Z,100514.34
2022-08-25T07:24:07.001Z,100513.31
2022-08-25T07:26:38.543Z,100520.72
2022-08-25T07:29:09.973Z,100524.00
2022-08-25T07:31:38.116Z,100523.34
2022-08-25T07:34:23.771Z,100527.53
2022-08-25T07:36:53.636Z,100531.72
2022-08-25T07:39:23.129Z,100529.72
2022-08-25T07:41:52.752Z,100532.81
2022-08-25T07:44:21.210Z,100528.84
2022-08-25T07:49:39.854Z,100531.88
2022-08-25T07:52:09.128Z,100524.31
2022-08-25T07:54:38.708Z,100525.69
2022-08-25T07:57:09.461Z,100518.88
2022-08-25T07:59:41.657Z,100534.31
2022-08-25T08:02:15.974Z,100532.91
2022-08-25T08:04:49.747Z,100530.41
2022-08-25T08:07:19.389Z,100538.00
2022-08-25T08:10:00.190Z,100533.38
2022-08-25T08:12:34.937Z,100529.13
2022-08-25T08:15:03.952Z,100530.91
2022-08-25T08:17:39.688Z,100526.13
2022-08-25T08:20:08.941Z,100533.03
2022-08-25T08:22:37.229Z,100526.19
2022-08-25T08:25:08.574Z,100535.63
2022-08-25T08:27:39.159Z,100531.19
2022-08-25T08:30:08.449Z,100534.84
2022-08-25T08:33:05.965Z,100531.19
2022-08-25T08:35:25.341Z,100527.97
2022-08-25T08:37:53.914Z,100529.72
2022-08-25T08:40:24.678Z,100529.50
2022-08-25T08:43:05.346Z,100524.66
2022-08-25T08:45:40.402Z,100522.91
2022-08-25T08:48:37.718Z,100509.53
2022-08-25T08:51:18.601Z,100514.75
2022-08-25T08:53:57.214Z,100505.06
2022-08-25T08:56:31.601Z,100512.69
2022-08-25T08:59:06.112Z,100509.56
2022-08-25T09:01:37.195Z,100517.16
2022-08-25T09:04:12.308Z,100518.50
2022-08-25T09:06:43.895Z,100513.47
2022-08-25T09:09:16.325Z,100510.78
2022-08-25T09:12:01.317Z,100514.69
2022-08-25T09:14:43.771Z,100513.13
2022-08-25T09:17:21.596Z,100507.25
2022-08-25T09:20:18.959Z,100508.78
2022-08-25T09:23:01.114Z,100513.47
2022-08-25T09:25:54.375Z,100515.75
2022-08-25T09:28:31.360Z,100513.72
2022-08-25T09:31:01.309Z,100509.31
2022-08-25T09:33:33.677Z,100511.91
2022-08-25T09:36:06.412Z,100503.97
2022-08-25T09:38:37.133Z,100506.94
2022-08-25T09:41:06.808Z,100502.50
2022-08-25T09:43:38.221Z,100500.75
2022-08-25T09:46:13.487Z,100499.06
2022-08-25T09:48:48.431Z,100498.03
2022-08-25T09:51:27.912Z,100491.59
2022-08-25T09:53:59.128Z,100486.69
2022-08-25T09:56:31.456Z,100489.69
2022-08-25T09:59:21.387Z,100485.19
2022-08-25T10:02:05.759Z,100483.84
2022-08-25T10:04:36.962Z,100480.13
2022-08-25T10:07:20.064Z,100482.63
2022-08-25T10:09:54.365Z,100485.56
2022-08-25T10:12:27.797Z,100486.91
2022-08-25T10:14:57.329Z,100483.91
2022-08-25T10:17:29.515Z,100479.81
2022-08-25T10:20:17.268Z,100479.66
2022-08-25T10:22:48.321Z,100477.44
2022-08-25T10:25:25.684Z,100483.09
2022-08-25T10:28:04.432Z,100482.50
2022-08-25T10:30:54.114Z,100480.75
2022-08-25T10:33:30.581Z,100475.88
2022-08-25T10:36:05.715Z,100467.44
2022-08-25T10:38:42.967Z,100464.84
2022-08-25T10:41:28.574Z,100463.09
2022-08-25T10:44:02.350Z,100469.53
2022-08-25T10:46:39.180Z,100459.16
2022-08-25T10:49:14.574Z,100455.03
2022-08-25T10:51:57.074Z,100444.91
2022-08-25T10:54:36.773Z,100444.63
2022-08-25T10:57:17.268Z,100439.69
2022-08-25T11:00:00.522Z,100438.19
2022-08-25T11:02:58.331Z,100422.25
2022-08-25T11:05:29.834Z,100418.00
2022-08-25T11:08:07.921Z,100418.84
2022-08-25T11:10:43.371Z,100419.72
2022-08-25T11:13:18.369Z,100413.53
2022-08-25T11:16:16.134Z,100411.66
2022-08-25T11:18:51.353Z,100412.94
2022-08-25T11:21:24.888Z,100415.41
2022-08-25T11:24:00.225Z,100409.63
2022-08-25T11:26:36.813Z,100413.56
2022-08-25T11:29:11.586Z,100405.91
2022-08-25T11:31:52.147Z,100401.63
2022-08-25T11:34:23.536Z,100389.06
2022-08-25T11:36:54.670Z,100399.38
2022-08-25T11:39:43.303Z,100388.88
2022-08-25T11:42:24.407Z,100396.47
2022-08-25T11:45:03.158Z,100400.06
2022-08-25T11:47:49.022Z,100398.19
2022-08-25T11:50:31.142Z,100391.97
2022-08-25T11:53:26.632Z,100382.56
2022-08-25T11:56:02.399Z,100382.63
2022-08-25T11:58:40.884Z,100387.34
2022-08-25T12:01:12.574Z,100380.97
2022-08-25T12:03:55.401Z,100376.22
2022-08-25T12:06:29.862Z,100382.44
2022-08-25T12:09:24.762Z,100377.69
2022-08-25T12:11:55.127Z,100378.84
2022-08-25T12:14:44.185Z,100378.47
2022-08-25T12:17:29.577Z,100376.97
2022-08-25T12:20:00.847Z,100373.13
2022-08-25T12:22:51.604Z,100369.25
2022-08-25T12:25:51.634Z,100364.63
2022-08-25T12:28:48.613Z,100367.44
2022-08-25T12:31:30.563Z,100371.75
2022-08-25T12:34:17.157Z,100359.19
2022-08-25T12:36:58.533Z,100361.88
2022-08-25T12:39:34.846Z,100365.09
2022-08-25T12:42:06.816Z,100365.56
2022-08-25T12:44:41.165Z,100362.47
2022-08-25T12:47:28.491Z,100363.31
2022-08-25T12:50:33.361Z,100353.19
2022-08-25T12:53:11.314Z,100358.78
2022-08-25T12:55:46.599Z,100354.13
2022-08-25T12:58:14.755Z,100363.59
2022-08-25T13:01:01.828Z,100348.75
2022-08-25T13:04:01.670Z,100348.44
2022-08-25T13:06:48.739Z,100341.47
2022-08-25T13:10:03.948Z,100347.38
2022-08-25T13:12:40.920Z,100342.72
2022-08-25T13:15:14.643Z,100347.50
2022-08-25T13:17:42.647Z,100344.75
2022-08-25T13:20:16.352Z,100340.47
2022-08-25T13:22:48.265Z,100342.06
2022-08-25T13:25:23.164Z,100331.13
2022-08-25T13:28:04.494Z,100339.06
2022-08-25T13:30:35.796Z,100324.50
2022-08-25T13:33:17.845Z,100325.72
2022-08-25T13:35:51.715Z,100326.09
2022-08-25T13:38:19.823Z,100318.63
2022-08-25T13:40:47.749Z,100323.34
2022-08-25T13:43:17.898Z,100322.13
2022-08-25T13:45:55.322Z,100314.19
2022-08-25T13:48:35.583Z,100316.91
2022-08-25T13:51:22.456Z,100318.00
2022-08-25T13:53:53.519Z,100319.03
2022-08-25T13:56:38.462Z,100318.97
2022-08-25T13:59:23.053Z,100314.19
2022-08-25T14:01:54.193Z,100314.88
2022-08-25T14:04:32.107Z,100317.16
2022-08-25T14:07:19.338Z,100306.03
2022-08-25T14:09:51.705Z,100308.31
2022-08-25T14:12:33.420Z,100303.47
2022-08-25T14:15:31.976Z,100310.84
2022-08-25T14:18:07.312Z,100312.75
2022-08-25T14:20:37.697Z,100314.22
2022-08-25T14:23:09.870Z,100311.00
2022-08-25T14:25:40.755Z,100315.22
2022-08-25T14:28:13.816Z,100311.53
2022-08-25T14:30:47.269Z,100315.16
2022-08-25T14:33:17.777Z,100322.53
2022-08-25T14:35:50.218Z,100319.50
2022-08-25T14:38:21.208Z,100304.00
2022-08-25T14:40:51.114Z,100310.16
2022-08-25T14:43:23.826Z,100312.75
2022-08-25T14:45:54.048Z,100312.44
2022-08-25T14:48:27.688Z,100308.38
2022-08-25T14:50:57.797Z,100315.31
2022-08-25T14:53:25.808Z,100311.09
2022-08-25T14:55:58.786Z,100313.25
2022-08-25T14:58:33.835Z,100308.13
2022-08-25T15:01:05.507Z,100302.75
2022-08-25T15:03:38.684Z,100302.66
2022-08-25T15:06:07.486Z,100307.16
2022-08-25T15:08:56.939Z,100301.44
2022-08-25T15:11:24.933Z,100307.78
2022-08-25T15:13:54.651Z,100300.00
2022-08-25T15:16:34.012Z,100297.66
2022-08-25T15:19:06.596Z,100293.81
2022-08-25T15:21:35.845Z,100299.28
2022-08-25T15:24:04.280Z,100293.44
2022-08-25T15:26:44.011Z,100290.47
2022-08-25T15:29:12.659Z,100293.63
2022-08-25T15:31:42.020Z,100289.03
2022-08-25T15:34:11.781Z,100285.88
2022-08-25T15:36:40.512Z,100291.34
2022-08-25T15:39:10.395Z,100296.75
2022-08-25T15:41:38.522Z,100298.78
2022-08-25T15:44:07.783Z,100302.84
2022-08-25T15:46:37.908Z,100302.84
2022-08-25T15:49:07.893Z,100309.09
2022-08-25T15:51:36.056Z,100314.88
2022-08-25T15:54:04.493Z,100323.69
2022-08-25T15:56:32.356Z,100320.78
2022-08-25T15:59:04.622Z,100331.59
2022-08-25T16:01:37.338Z,100327.53
2022-08-25T16:04:05.382Z,100329.22
2022-08-25T16:06:35.243Z,100339.97
2022-08-25T16:09:03.615Z,100335.53
2022-08-25T16:11:34.873Z,100346.03
2022-08-25T16:14:03.785Z,100341.97
2022-08-25T16:16:33.167Z,100335.53
2022-08-25T16:19:02.049Z,100337.91
2022-08-25T16:21:33.703Z,100336.56
2022-08-25T16:24:08.013Z,100336.00
2022-08-25T16:26:37.074Z,100344.13
2022-08-25T16:29:06.540Z,100337.53
2022-08-25T16:31:34.709Z,100337.44
2022-08-25T16:34:02.867Z,100344.75
2022-08-25T16:36:30.872Z,100335.53
2022-08-25T16:39:00.928Z,100341.38
2022-08-25T16:41:35.724Z,100343.56
2022-08-25T16:44:07.821Z,100348.34
2022-08-25T16:46:40.730Z,100341.53
2022-08-25T16:49:09.587Z,100338.63
2022-08-25T16:51:38.025Z,100334.53
2022-08-25T16:54:25.381Z,100336.34
2022-08-25T16:56:55.540Z,100345.22
2022-08-25T16:59:24.331Z,100345.91
2022-08-25T17:01:53.316Z,100348.41
2022-08-25T17:04:29.459Z,100341.38
2022-08-25T17:07:01.947Z,100345.59
2022-08-25T17:09:30.660Z,100352.16
2022-08-25T17:11:59.809Z,100349.75
2022-08-25T17:14:27.651Z,100342.38
2022-08-25T17:16:55.599Z,100342.94
2022-08-25T17:19:26.030Z,100346.13
2022-08-25T17:21:55.107Z,100354.84
2022-08-25T17:24:29.311Z,100349.13
2022-08-25T17:27:00.115Z,100355.00
2022-08-25T17:29:29.389Z,100366.13
2022-08-25T17:31:59.190Z,100363.81
2022-08-25T17:34:28.195Z,100360.72
2022-08-25T17:36:57.694Z,100363.16
2022-08-25T17:39:26.270Z,100361.44
2022-08-25T17:41:54.659Z,100363.97
2022-08-25T17:44:24.994Z,100364.09
2022-08-25T17:46:53.027Z,100368.88
2022-08-25T17:49:22.529Z,100373.53
2022-08-25T17:51:50.933Z,100381.09
2022-08-25T17:54:18.792Z,100383.28
2022-08-25T17:56:46.570Z,100376.56
2022-08-25T17:59:16.379Z,100381.94
2022-08-25T18:01:47.073Z,100384.69
2022-08-25T18:04:17.764Z,100382.97
2022-08-25T18:06:46.454Z,100376.69
2022-08-25T18:09:14.848Z,100386.69
2022-08-25T18:11:42.951Z,100385.06
2022-08-25T18:14:11.570Z,100387.34
2022-08-25T18:16:40.783Z,100385.59
2022-08-25T18:19:14.451Z,100386.09
2022-08-25T18:21:43.167Z,100389.28
2022-08-25T18:24:13.496Z,100399.72
2022-08-25T18:26:41.968Z,100400.84
2022-08-25T18:29:12.944Z,100407.72
2022-08-25T18:31:42.161Z,100410.28
2022-08-25T18:34:11.809Z,100424.94
2022-08-25T18:36:41.394Z,100421.75
2022-08-25T18:39:29.577Z,100421.75
2022-08-25T18:42:01.714Z,100428.50
2022-08-25T18:44:30.432Z,100432.69
2022-08-25T18:46:58.273Z,100437.34
2022-08-25T18:49:28.660Z,100451.75
2022-08-25T18:51:57.037Z,100466.19
2022-08-25T18:54:24.835Z,100462.97
2022-08-25T18:56:54.625Z,100464.09
2022-08-25T18:59:24.110Z,100468.13
2022-08-25T19:01:53.598Z,100478.19
2022-08-25T19:04:28.300Z,100473.59
2022-08-25T19:07:01.197Z,100482.38
2022-08-25T19:09:30.556Z,100486.84
2022-08-25T19:11:58.633Z,100491.63
2022-08-25T19:14:26.815Z,100489.69
2022-08-25T19:16:58.127Z,100495.09
2022-08-25T19:19:26.240Z,100499.53
2022-08-25T19:21:54.110Z,100500.34
2022-08-25T19:24:23.588Z,100494.25
2022-08-25T19:26:54.517Z,100504.94
2022-08-25T19:29:23.276Z,100511.66
2022-08-25T19:31:53.418Z,100502.00
2022-08-25T19:34:28.400Z,100509.69
2022-08-25T19:37:00.975Z,100509.94
2022-08-25T19:39:31.407Z,100517.75
2022-08-25T19:42:00.399Z,100510.53
2022-08-25T19:44:31.242Z,100508.25
2022-08-25T19:47:00.132Z,100512.72
2022-08-25T19:49:34.317Z,100520.34
2022-08-25T19:52:10.490Z,100512.16
2022-08-25T19:54:44.155Z,100522.06
2022-08-25T19:57:14.133Z,100522.34
2022-08-25T19:59:56.441Z,100531.72
2022-08-25T20:02:29.857Z,100539.41
2022-08-25T20:05:00.380Z,100534.66
2022-08-25T20:07:31.115Z,100533.19
2022-08-25T20:10:01.082Z,100536.22
2022-08-25T20:12:30.146Z,100541.47
2022-08-25T20:14:58.427Z,100548.59
2022-08-25T20:17:28.256Z,100554.34
2022-08-25T20:19:59.751Z,100558.97
2022-08-25T20:22:29.917Z,100560.06
2022-08-25T20:25:02.615Z,100565.31
2022-08-25T20:27:37.914Z,100567.34
2022-08-25T20:30:10.567Z,100567.47
2022-08-25T20:32:39.181Z,100575.31
2022-08-25T20:35:12.915Z,100579.13
2022-08-25T20:37:41.766Z,100580.94
2022-08-25T20:40:13.806Z,100578.34
2022-08-25T20:42:43.597Z,100576.81
2022-08-25T20:45:15.205Z,100578.25
2022-08-25T20:47:44.315Z,100568.50
2022-08-25T20:50:12.932Z,100570.72
2022-08-25T20:52:43.870Z,100580.75
2022-08-25T20:55:13.798Z,100578.75
2022-08-25T20:57:41.849Z,100585.78
2022-08-25T21:00:11.283Z,100584.88
2022-08-25T21:02:39.519Z,100579.34
2022-08-25T21:05:08.822Z,100586.47
2022-08-25T21:07:36.824Z,100581.94
2022-08-25T21:10:10.746Z,100582.47
2022-08-25T21:12:45.023Z,100589.28
2022-08-25T21:15:18.203Z,100593.97
2022-08-25T21:17:50.340Z,100594.78
2022-08-25T21:20:18.681Z,100597.63
2022-08-25T21:22:46.608Z,100592.81
2022-08-25T21:25:14.514Z,100602.66
2022-08-25T21:27:44.419Z,100601.03
2022-08-25T21:30:16.168Z,100606.03
2022-08-25T21:32:52.735Z,100606.53
2022-08-25T21:35:23.030Z,100608.44
2022-08-25T21:37:52.999Z,100606.03
2022-08-25T21:40:22.015Z,100601.72
2022-08-25T21:42:51.993Z,100599.91
2022-08-25T21:45:21.948Z,100608.69
2022-08-25T21:47:50.048Z,100615.91
2022-08-25T21:50:20.066Z,100608.09
2022-08-25T21:52:48.192Z,100618.94
2022-08-25T21:55:22.431Z,100621.13
2022-08-25T21:57:52.606Z,100615.44
2022-08-25T22:00:22.499Z,100616.47
2022-08-25T22:02:50.594Z,100613.41
2022-08-25T22:05:18.626Z,100621.25
2022-08-25T22:07:46.701Z,100626.03
2022-08-25T22:10:16.714Z,100621.16
2022-08-25T22:12:46.088Z,100617.44
2022-08-25T22:15:17.895Z,100620.84
2022-08-25T22:17:46.314Z,100625.47
2022-08-25T22:20:17.267Z,100625.78
2022-08-25T22:22:45.080Z,100625.06
2022-08-25T22:25:13.349Z,100633.22
2022-08-25T22:27:41.553Z,100635.66
2022-08-25T22:30:10.726Z,100641.31
2022-08-25T22:32:39.924Z,100640.25
2022-08-25T22:35:09.497Z,100650.28
2022-08-25T22:37:37.753Z,100639.16
2022-08-25T22:40:06.598Z,100644.59
2022-08-25T22:42:34.459Z,100645.41
2022-08-25T22:45:02.450Z,100641.59
2022-08-25T22:47:31.537Z,100631.09
2022-08-25T22:50:00.757Z,100642.78
2022-08-25T22:52:33.347Z,100642.69
2022-08-25T22:55:01.872Z,100634.31
2022-08-25T22:57:30.269Z,100635.09
2022-08-25T22:59:59.255Z,100641.09
2022-08-25T23:02:27.615Z,100641.09
2022-08-25T23:05:00.830Z,100642.50
2022-08-25T23:07:31.007Z,100637.66
2022-08-25T23:09:59.959Z,100642.56
2022-08-25T23:12:27.791Z,100636.91
2022-08-25T23:14:56.422Z,100637.00
2022-08-25T23:17:24.602Z,100634.34
2022-08-25T23:19:52.419Z,100641.00
2022-08-25T23:22:19.810Z,100638.03
2022-08-25T23:24:51.891Z,100636.66
2022-08-25T23:27:22.070Z,100638.63
2022-08-25T23:29:51.139Z,100640.66
2022-08-25T23:32:19.518Z,100649.97
2022-08-25T23:34:47.966Z,100641.97
2022-08-25T23:37:18.408Z,100641.75
2022-08-25T23:39:50.053Z,100651.22
2022-08-25T23:42:19.109Z,100645.84
2022-08-25T23:44:47.105Z,100648.19
2022-08-25T23:47:15.152Z,100659.97
2022-08-25T23:49:42.998Z,100650.03
2022-08-25T23:52:11.341Z,100650.53
2022-08-25T23:54:39.418Z,100652.09
2022-08-25T23:57:09.063Z,100651.88
2022-08-25T23:59:37.550Z,100646.19
